Time;durP1;ratioP1;P1;durP2;ratioP2;P2;SDS_P1;SDS_P2;PMS_P1;PMS_P2;Temp;Humidity;BMP_temperature;BMP_pressure;BME280_temperature;BME280_humidity;BME280_pressure;Samples;Min_cycle;Max_cycle;Signal;HPM_P1;HPM_P2
2021/05/19 00:35:35;;;;;;;15.73;5.22;;;7.10;97.90;;;;;;4910158;28;20075;-88
2021/05/19 00:38:11;;;;;;;10.00;6.95;;;7.10;97.90;;;;;;4933954;28;20099;-88
2021/05/19 00:40:44;;;;;;;8.23;6.07;;;7.00;97.90;;;;;;4924334;29;20043;-88
2021/05/19 00:43:35;;;;;;;18.80;7.47;;;7.10;97.90;;;;;;4928770;28;20075;-86
2021/05/19 00:46:24;;;;;;;;;;;;;;;;;;;;;
2021/05/19 00:49:20;;;;;;;12.73;7.80;;;7.10;98.10;;;;;;4938099;28;20051;-87
2021/05/19 00:51:59;;;;;;;16.02;8.93;;;7.10;98.10;;;;;;4940824;28;20043;-87
2021/05/19 00:54:27;;;;;;;13.82;7.88;;;7.10;98.00;;;;;;4935102;28;20045;-87
2021/05/19 00:57:03;;;;;;;12.23;8.35;;;7.00;97.90;;;;;;4953173;28;20069;-87
2021/05/19 00:59:39;;;;;;;15.07;9.85;;;6.90;97.90;;;;;;4965309;28;20125;-86
2021/05/19 01:02:06;;;;;;;15.90;10.73;;;6.90;98.00;;;;;;4935360;28;20497;-87
2021/05/19 01:04:32;;;;;;;27.05;14.20;;;6.90;98.10;;;;;;4932119;28;20395;-87
2021/05/19 01:07:00;;;;;;;28.35;14.02;;;6.90;98.10;;;;;;4968112;28;20595;-86
2021/05/19 01:09:36;;;;;;;32.58;14.38;;;6.90;98.20;;;;;;4932005;28;20042;-86
2021/05/19 01:12:05;;;;;;;29.52;15.85;;;6.90;98.30;;;;;;4951225;28;20409;-86
2021/05/19 01:14:32;;;;;;;26.38;15.07;;;6.90;98.60;;;;;;4950118;28;20085;-86
2021/05/19 01:16:58;;;;;;;23.30;12.63;;;6.90;98.40;;;;;;4934472;28;20047;-86
2021/05/19 01:19:26;;;;;;;19.58;11.45;;;6.90;98.40;;;;;;4916043;28;20476;-86
2021/05/19 01:22:05;;;;;;;26.45;14.35;;;6.90;98.30;;;;;;4948192;28;20035;-88
2021/05/19 01:25:43;;;;;;;26.20;14.95;;;6.90;98.40;;;;;;4940376;28;20039;-86
2021/05/19 01:28:31;;;;;;;29.73;16.70;;;7.00;98.50;;;;;;4960700;28;20550;-86
2021/05/19 01:31:15;;;;;;;21.92;14.23;;;7.00;98.60;;;;;;4951099;28;20497;-87
2021/05/19 01:33:50;;;;;;;29.15;16.92;;;7.10;98.60;;;;;;4952296;28;20102;-86
2021/05/19 01:36:22;;;;;;;33.60;18.88;;;7.10;98.60;;;;;;4947317;28;20074;-86
2021/05/19 01:39:07;;;;;;;33.65;17.38;;;7.10;98.60;;;;;;4964162;28;20739;-86
2021/05/19 01:41:34;;;;;;;23.63;14.40;;;7.10;98.60;;;;;;4955030;28;20045;-86
2021/05/19 01:44:11;;;;;;;27.92;15.27;;;7.10;98.90;;;;;;4939234;28;20042;-86
2021/05/19 01:46:37;;;;;;;33.17;16.83;;;7.20;98.60;;;;;;4953582;28;20498;-87
2021/05/19 01:49:06;;;;;;;38.65;18.08;;;7.20;98.60;;;;;;4936108;28;20054;-86
2021/05/19 01:51:32;;;;;;;25.10;15.10;;;7.20;98.60;;;;;;4954303;28;20145;-86
2021/05/19 01:54:02;;;;;;;27.15;16.42;;;7.20;98.60;;;;;;4967089;28;20039;-86
2021/05/19 01:56:46;;;;;;;28.58;17.58;;;7.20;98.70;;;;;;4952681;28;20057;-86
2021/05/19 01:59:19;;;;;;;36.95;18.38;;;7.20;98.70;;;;;;4934878;28;20412;-86
2021/05/19 02:01:45;;;;;;;26.15;16.80;;;7.20;98.70;;;;;;4949399;28;20281;-87
2021/05/19 02:04:14;;;;;;;26.83;16.50;;;7.20;98.70;;;;;;4966604;28;20062;-87
2021/05/19 02:06:54;;;;;;;35.63;19.25;;;7.20;98.70;;;;;;4954681;28;20051;-86
2021/05/19 02:09:26;;;;;;;38.70;21.20;;;7.20;98.80;;;;;;4965124;28;20157;-86
2021/05/19 02:11:55;;;;;;;27.47;16.87;;;7.20;98.80;;;;;;4955486;28;20493;-87
2021/05/19 02:14:32;;;;;;;30.30;19.00;;;7.20;98.80;;;;;;4937778;28;20046;-86
2021/05/19 02:17:01;;;;;;;32.42;19.52;;;7.20;98.80;;;;;;4939341;28;20039;-86
2021/05/19 02:19:27;;;;;;;36.92;19.95;;;7.20;98.80;;;;;;4936729;28;20101;-87
2021/05/19 02:21:58;;;;;;;33.65;18.13;;;7.20;98.80;;;;;;4956189;28;20428;-87
2021/05/19 02:24:25;;;;;;;29.83;18.88;;;7.20;98.80;;;;;;4952234;28;20075;-87
2021/05/19 02:26:53;;;;;;;30.95;18.88;;;7.30;98.80;;;;;;4934262;28;20039;-87
2021/05/19 02:29:25;;;;;;;28.65;18.92;;;7.30;98.90;;;;;;4951407;28;20043;-86
2021/05/19 02:31:51;;;;;;;32.03;19.92;;;7.30;98.90;;;;;;4936624;28;20050;-86
2021/05/19 02:34:17;;;;;;;28.02;17.67;;;7.30;98.90;;;;;;4967901;28;20035;-87
2021/05/19 02:36:45;;;;;;;29.33;17.95;;;7.30;98.90;;;;;;4955174;28;20113;-86
2021/05/19 02:39:12;;;;;;;39.40;19.17;;;7.30;98.90;;;;;;4953956;28;20057;-86
2021/05/19 02:41:40;;;;;;;24.25;16.70;;;7.30;98.90;;;;;;4970766;28;20091;-86
2021/05/19 02:44:08;;;;;;;32.50;19.55;;;7.30;98.90;;;;;;4955188;28;20103;-87
2021/05/19 02:46:42;;;;;;;37.85;19.98;;;7.40;98.90;;;;;;4953120;28;20489;-86
2021/05/19 02:49:14;;;;;;;31.48;18.95;;;7.40;98.90;;;;;;4936199;28;20121;-86
2021/05/19 02:51:43;;;;;;;26.60;18.48;;;7.40;99.00;;;;;;4955148;28;20133;-86
2021/05/19 02:54:09;;;;;;;37.90;20.67;;;7.40;99.00;;;;;;4950290;28;20103;-86
2021/05/19 02:56:35;;;;;;;36.92;22.65;;;7.50;99.00;;;;;;4943388;28;20065;-87
2021/05/19 02:59:02;;;;;;;25.73;18.65;;;7.50;99.00;;;;;;4955726;28;20115;-87
2021/05/19 03:01:28;;;;;;;40.88;22.33;;;7.50;99.00;;;;;;4960021;28;20038;-87
2021/05/19 03:03:59;;;;;;;35.50;21.02;;;7.50;99.00;;;;;;4942945;28;20529;-86
2021/05/19 03:06:25;;;;;;;39.42;22.85;;;7.50;99.20;;;;;;4945213;28;20131;-87
2021/05/19 03:08:51;;;;;;;41.63;22.35;;;7.50;99.00;;;;;;4954641;28;20058;-86
2021/05/19 03:11:18;;;;;;;39.95;22.40;;;7.50;99.00;;;;;;4971331;28;20050;-87
2021/05/19 03:13:44;;;;;;;45.33;24.65;;;7.50;99.00;;;;;;4969409;28;20536;-87
2021/05/19 03:16:11;;;;;;;35.03;22.67;;;7.60;99.10;;;;;;4958455;28;20098;-86
2021/05/19 03:18:40;;;;;;;43.38;25.38;;;7.60;99.10;;;;;;4956471;28;20639;-86
2021/05/19 07:31:34;;;;;;;55.22;33.00;;;10.90;98.60;;;;;;4985117;28;20546;-84
2021/05/19 07:34:26;;;;;;;50.15;31.70;;;10.90;98.50;;;;;;4987426;28;20181;-85
2021/05/19 07:36:52;;;;;;;53.50;33.13;;;11.00;98.40;;;;;;4954378;28;20042;-84
2021/05/19 07:39:19;;;;;;;55.42;33.35;;;11.00;98.30;;;;;;4968310;28;20126;-84
2021/05/19 07:41:45;;;;;;;54.70;33.55;;;11.10;98.30;;;;;;4975661;28;20085;-85
2021/05/19 07:44:11;;;;;;;58.70;35.60;;;11.10;98.30;;;;;;4961361;28;20034;-84
2021/05/19 07:46:38;;;;;;;60.50;34.53;;;11.20;98.30;;;;;;4982411;28;20041;-84
2021/05/19 07:49:04;;;;;;;57.35;32.72;;;11.30;98.30;;;;;;4981803;28;20053;-84
2021/05/19 07:51:30;;;;;;;50.60;30.10;;;11.30;98.20;;;;;;4975594;28;20061;-87
2021/05/19 07:53:56;;;;;;;48.33;31.80;;;11.50;98.10;;;;;;4943388;28;20478;-87
2021/05/19 07:58:56;;;;;;;50.35;34.83;;;11.60;98.00;;;;;;4984488;28;20704;-89
2021/05/19 08:03:48;;;;;;;53.30;30.60;;;11.90;97.90;;;;;;4987432;28;20121;-85
2021/05/19 08:06:15;;;;;;;48.42;28.80;;;12.00;97.80;;;;;;4963781;28;20072;-89
2021/05/19 08:08:41;;;;;;;45.28;27.75;;;12.10;97.70;;;;;;4953588;28;21182;-88
2021/05/19 08:11:07;;;;;;;40.65;26.40;;;12.10;97.50;;;;;;4950829;28;20053;-86
2021/05/19 08:13:38;;;;;;;40.95;27.35;;;12.20;97.40;;;;;;4953265;28;20331;-85
2021/05/19 08:16:05;;;;;;;33.08;23.80;;;12.20;97.20;;;;;;4974329;28;20268;-86
2021/05/19 08:18:31;;;;;;;43.47;26.27;;;12.30;97.10;;;;;;4963388;28;20092;-85
2021/05/19 08:20:57;;;;;;;36.70;25.58;;;12.40;97.00;;;;;;4954569;28;20038;-86
2021/05/19 08:23:23;;;;;;;37.17;24.40;;;12.40;96.90;;;;;;4968824;28;20065;-85
2021/05/19 08:25:48;;;;;;;31.70;22.67;;;12.40;96.60;;;;;;4964536;28;20387;-86
2021/05/19 08:28:14;;;;;;;34.90;23.45;;;12.40;96.50;;;;;;4931164;28;20052;-86
2021/05/19 08:30:40;;;;;;;29.15;22.67;;;12.50;96.40;;;;;;4929486;28;20133;-88
2021/05/19 08:33:06;;;;;;;30.00;20.90;;;12.40;96.10;;;;;;4968475;28;20031;-87
2021/05/19 08:35:32;;;;;;;28.35;21.08;;;12.50;96.00;;;;;;4970184;28;20527;-88
2021/05/19 08:37:59;;;;;;;31.52;22.75;;;12.50;95.80;;;;;;4981209;28;20420;-84
2021/05/19 08:40:26;;;;;;;30.67;21.95;;;12.60;95.60;;;;;;4968848;28;20359;-88
2021/05/19 08:42:51;;;;;;;32.78;22.33;;;12.70;95.70;;;;;;4991521;28;20038;-85
2021/05/19 08:45:17;;;;;;;26.58;21.73;;;12.90;95.60;;;;;;4974731;28;20097;-88
2021/05/19 08:47:44;;;;;;;32.00;22.48;;;13.00;95.60;;;;;;4950541;28;20592;-86
2021/05/19 08:50:10;;;;;;;41.25;23.23;;;13.10;95.50;;;;;;4966116;28;20397;-87
2021/05/19 08:52:41;;;;;;;37.10;24.35;;;13.20;95.30;;;;;;4982863;28;20093;-87
2021/05/19 08:55:15;;;;;;;34.58;22.15;;;13.40;95.50;;;;;;4988860;28;20148;-86
2021/05/19 08:57:43;;;;;;;25.90;15.95;;;13.50;95.40;;;;;;4984317;28;20532;-87
2021/05/19 09:00:10;;;;;;;24.95;16.70;;;13.60;95.00;;;;;;4940636;28;20054;-86
2021/05/19 09:02:36;;;;;;;26.10;16.55;;;13.70;94.50;;;;;;4969133;28;20062;-88
2021/05/19 09:05:03;;;;;;;22.20;15.27;;;13.90;94.20;;;;;;4977905;28;20038;-88
2021/05/19 09:07:30;;;;;;;21.42;13.48;;;14.10;94.10;;;;;;4975681;28;20038;-84
2021/05/19 09:09:56;;;;;;;15.48;12.35;;;14.20;93.40;;;;;;4976893;28;20073;-89
2021/05/19 09:12:56;;;;;;;22.75;12.43;;;14.10;92.70;;;;;;4974259;28;20389;-85
2021/05/19 09:15:23;;;;;;;15.40;11.98;;;14.10;92.40;;;;;;4968245;28;20090;-86
2021/05/19 09:17:56;;;;;;;19.70;13.75;;;14.20;92.30;;;;;;4969360;28;20034;-85
2021/05/19 09:20:23;;;;;;;21.08;13.45;;;14.30;92.00;;;;;;4979904;28;20070;-89
2021/05/19 09:23:02;;;;;;;21.70;15.95;;;14.40;92.20;;;;;;4969045;28;20581;-85
2021/05/19 09:25:30;;;;;;;21.63;13.70;;;14.50;92.00;;;;;;4984791;28;20112;-88
2021/05/19 09:27:59;;;;;;;18.75;12.70;;;14.50;91.90;;;;;;4982810;28;20042;-85
2021/05/19 09:30:38;;;;;;;15.48;12.45;;;14.60;91.70;;;;;;4967857;28;20062;-86
2021/05/19 09:33:24;;;;;;;17.27;10.32;;;14.60;91.30;;;;;;4989174;28;20030;-87
2021/05/19 09:36:22;;;;;;;15.95;11.50;;;14.40;90.10;;;;;;4979189;28;20053;-87
2021/05/19 09:38:53;;;;;;;21.23;12.07;;;14.20;90.50;;;;;;4980114;28;20039;-88
2021/05/19 09:41:27;;;;;;;20.38;11.35;;;14.00;90.80;;;;;;4992093;28;20093;-81
2021/05/19 09:43:56;;;;;;;21.48;14.77;;;13.80;90.70;;;;;;4987219;28;20038;-83
2021/05/19 09:49:17;;;;;;;23.92;17.27;;;13.40;91.50;;;;;;4973299;28;20140;-83
2021/05/19 09:51:54;;;;;;;27.08;18.92;;;13.10;92.10;;;;;;4981178;28;20500;-82
2021/05/19 09:54:42;;;;;;;24.33;17.35;;;12.90;92.60;;;;;;4986458;28;20503;-84
2021/05/19 09:57:10;;;;;;;24.73;19.13;;;12.70;93.00;;;;;;4980824;28;20093;-83
2021/05/19 09:59:37;;;;;;;32.80;21.67;;;12.60;93.30;;;;;;4963790;28;20385;-82
2021/05/19 10:02:04;;;;;;;37.85;23.80;;;12.50;93.50;;;;;;4968848;28;20034;-83
2021/05/19 10:04:34;;;;;;;26.27;16.77;;;12.50;93.80;;;;;;4983068;28;20030;-85
2021/05/19 10:07:00;;;;;;;31.70;22.83;;;12.40;93.80;;;;;;5000240;28;20481;-84
2021/05/19 10:09:27;;;;;;;44.88;26.48;;;12.30;93.90;;;;;;4985227;28;20031;-82
2021/05/19 10:11:53;;;;;;;35.40;25.48;;;12.30;94.20;;;;;;4974668;28;20043;-82
2021/05/19 10:14:22;;;;;;;40.53;27.02;;;12.20;94.50;;;;;;4982275;28;20038;-80
2021/05/19 10:16:52;;;;;;;47.67;30.35;;;12.20;94.70;;;;;;4980738;28;20294;-83
2021/05/19 10:19:25;;;;;;;44.38;30.77;;;12.10;94.90;;;;;;4978402;28;20100;-84
2021/05/19 10:21:52;;;;;;;49.10;30.45;;;12.10;95.10;;;;;;4976675;28;20133;-81
2021/05/19 10:24:18;;;;;;;33.58;20.75;;;12.00;95.30;;;;;;4975248;28;20038;-83
2021/05/19 10:27:09;;;;;;;23.42;18.38;;;12.00;95.40;;;;;;4973666;28;20038;-85
2021/05/19 10:29:48;;;;;;;30.90;21.35;;;11.90;95.50;;;;;;4978779;28;20034;-83
2021/05/19 10:32:20;;;;;;;30.17;21.10;;;11.90;96.00;;;;;;4979293;28;20491;-81
2021/05/19 10:34:46;;;;;;;23.23;17.87;;;11.90;95.80;;;;;;4975107;28;20030;-82
2021/05/19 10:37:27;;;;;;;13.07;8.15;;;12.00;95.90;;;;;;4964022;28;20333;-84
2021/05/19 10:40:18;;;;;;;11.65;7.63;;;12.00;95.60;;;;;;4975698;28;20084;-82
2021/05/19 10:42:53;;;;;;;14.55;8.98;;;11.90;95.40;;;;;;4980906;28;20035;-83
2021/05/19 10:45:20;;;;;;;12.90;8.07;;;11.90;95.70;;;;;;4980613;28;20369;-80
2021/05/19 10:47:46;;;;;;;9.55;6.70;;;11.90;95.80;;;;;;4979607;28;20043;-81
2021/05/19 10:50:35;;;;;;;11.82;7.35;;;11.90;95.90;;;;;;4965755;28;20169;-82
2021/05/19 10:58:42;;;;;;;11.88;6.38;;;12.00;96.10;;;;;;4990579;28;20588;-81
2021/05/19 11:01:10;;;;;;;9.70;7.10;;;12.10;96.20;;;;;;4987608;28;20069;-80
2021/05/19 11:03:38;;;;;;;11.63;7.03;;;12.20;96.40;;;;;;4981330;28;20065;-81
2021/05/19 11:06:07;;;;;;;12.35;7.30;;;12.30;96.60;;;;;;4983342;28;20030;-84
2021/05/19 11:08:35;;;;;;;12.05;8.38;;;12.40;96.70;;;;;;4986514;28;20069;-80
2021/05/19 11:11:20;;;;;;;14.60;8.02;;;12.50;96.80;;;;;;4985911;28;20469;-81
2021/05/19 11:13:59;;;;;;;9.10;7.32;;;12.60;97.00;;;;;;5004756;28;20042;-82
2021/05/19 11:16:40;;;;;;;12.30;8.93;;;12.80;97.00;;;;;;4989455;28;20054;-84
2021/05/19 11:19:18;;;;;;;10.90;7.25;;;12.90;97.00;;;;;;4989020;28;20076;-85
2021/05/19 11:21:44;;;;;;;8.57;5.90;;;13.00;96.90;;;;;;4986168;28;20469;-82
2021/05/19 11:24:13;;;;;;;8.27;5.57;;;13.00;96.60;;;;;;4965905;28;20113;-81
2021/05/19 11:26:43;;;;;;;12.00;7.20;;;13.10;96.40;;;;;;4994349;28;20039;-84
2021/05/19 11:29:11;;;;;;;12.93;8.82;;;13.10;96.30;;;;;;4992970;28;20141;-85
2021/05/19 11:31:41;;;;;;;15.15;11.57;;;13.00;96.20;;;;;;4970222;28;20034;-84
2021/05/19 11:34:08;;;;;;;20.20;13.35;;;12.90;96.10;;;;;;4980044;28;20081;-81
2021/05/19 11:36:43;;;;;;;15.85;9.27;;;12.80;96.30;;;;;;4981538;28;20030;-80
2021/05/19 11:39:36;;;;;;;9.88;8.88;;;12.60;96.00;;;;;;4975806;28;20066;-82
2021/05/19 11:42:18;;;;;;;12.98;9.95;;;12.40;95.50;;;;;;4983482;28;20054;-81
2021/05/19 11:44:56;;;;;;;13.25;10.00;;;12.20;95.80;;;;;;4959975;28;20505;-84
2021/05/19 11:47:30;;;;;;;16.23;10.20;;;12.10;95.90;;;;;;4984715;28;20046;-81
2021/05/19 11:50:09;;;;;;;9.40;8.27;;;12.00;96.10;;;;;;4978753;28;20050;-83
2021/05/19 11:52:42;;;;;;;10.20;8.48;;;11.90;96.00;;;;;;4981888;28;20448;-82
2021/05/19 11:55:40;;;;;;;10.27;9.20;;;11.80;96.00;;;;;;4984565;28;20046;-81
2021/05/19 11:58:27;;;;;;;15.77;9.70;;;11.70;95.90;;;;;;4971579;28;20119;-83
2021/05/19 12:01:01;;;;;;;9.95;8.52;;;11.60;96.10;;;;;;4964447;28;20038;-81
2021/05/19 12:03:32;;;;;;;11.18;8.40;;;11.60;96.30;;;;;;4974180;28;20042;-83
2021/05/19 12:06:00;;;;;;;11.15;7.70;;;11.60;96.30;;;;;;4982114;28;20030;-81
2021/05/19 12:08:35;;;;;;;13.45;9.23;;;11.60;96.10;;;;;;4979051;28;20187;-83
2021/05/19 12:11:04;;;;;;;18.40;10.55;;;11.50;95.90;;;;;;4997286;28;20485;-82
2021/05/19 12:13:31;;;;;;;14.05;11.40;;;11.50;96.00;;;;;;4983560;28;20459;-85
2021/05/19 12:15:57;;;;;;;12.38;10.13;;;11.50;96.10;;;;;;4967635;28;20034;-80
2021/05/19 12:18:23;;;;;;;13.57;10.80;;;11.40;96.10;;;;;;4974311;28;20696;-84
2021/05/19 12:20:50;;;;;;;12.02;7.00;;;11.40;96.10;;;;;;4982533;28;20086;-84
2021/05/19 12:23:17;;;;;;;10.38;5.78;;;11.40;96.10;;;;;;4989255;28;20029;-84
2021/05/19 12:25:44;;;;;;;7.22;3.10;;;11.40;96.40;;;;;;4988216;28;20110;-81
2021/05/19 12:28:19;;;;;;;5.38;3.10;;;11.30;95.80;;;;;;4958316;28;20126;-83
2021/05/19 12:30:50;;;;;;;5.45;2.20;;;11.20;95.60;;;;;;4979520;28;20038;-80
2021/05/19 12:33:21;;;;;;;3.37;1.43;;;11.20;95.50;;;;;;4974975;28;20046;-80
2021/05/19 12:35:49;;;;;;;7.55;3.22;;;11.00;95.30;;;;;;4979778;28;20104;-81
2021/05/19 12:38:19;;;;;;;6.35;2.15;;;10.90;95.40;;;;;;4971205;28;20039;-81
2021/05/19 12:40:47;;;;;;;3.63;1.80;;;10.80;95.60;;;;;;4975209;28;20421;-82
2021/05/19 12:43:26;;;;;;;8.57;4.78;;;10.80;95.80;;;;;;4976942;28;21834;-83
2021/05/19 12:45:52;;;;;;;5.38;3.88;;;10.80;95.80;;;;;;4975139;28;20088;-82
2021/05/19 12:48:21;;;;;;;6.78;2.72;;;10.80;95.90;;;;;;4975527;28;20027;-83
2021/05/19 12:50:49;;;;;;;2.42;1.63;;;10.90;96.10;;;;;;4975917;28;20041;-82
2021/05/19 12:53:37;;;;;;;2.47;1.60;;;10.90;95.90;;;;;;4983154;28;20114;-82
2021/05/19 12:56:12;;;;;;;3.58;1.60;;;11.00;95.70;;;;;;4977988;28;20050;-82
2021/05/19 12:58:56;;;;;;;1.95;1.30;;;11.00;95.70;;;;;;4975609;28;20039;-83
2021/05/19 13:01:28;;;;;;;3.63;1.35;;;11.10;95.50;;;;;;4975669;28;20072;-83
2021/05/19 13:03:54;;;;;;;2.97;0.90;;;11.20;95.60;;;;;;4978128;28;20034;-82
2021/05/19 13:06:26;;;;;;;4.07;1.20;;;11.30;95.60;;;;;;4978999;28;20094;-83
2021/05/19 13:08:56;;;;;;;2.97;1.65;;;11.30;95.40;;;;;;4959842;28;20060;-82
2021/05/19 13:11:23;;;;;;;1.83;1.50;;;11.40;95.40;;;;;;4979361;28;20057;-83
2021/05/19 13:13:49;;;;;;;1.52;1.10;;;11.40;95.40;;;;;;4976039;28;20050;-83
2021/05/19 13:16:37;;;;;;;2.60;1.40;;;11.50;95.20;;;;;;4965012;28;20490;-83
2021/05/19 13:19:08;;;;;;;4.03;1.60;;;11.60;95.00;;;;;;4957369;28;20071;-83
2021/05/19 13:24:13;;;;;;;2.78;1.60;;;11.70;94.90;;;;;;4978724;28;20049;-83
2021/05/19 13:26:45;;;;;;;3.90;1.52;;;11.80;95.10;;;;;;4981356;28;20496;-84
2021/05/19 13:29:16;;;;;;;4.20;1.70;;;11.90;95.10;;;;;;4973804;28;20039;-84
2021/05/19 13:34:20;;;;;;;3.47;2.00;;;12.20;94.90;;;;;;4979692;28;20188;-83
2021/05/19 13:36:47;;;;;;;4.07;3.20;;;12.20;94.90;;;;;;4976918;28;20035;-85
2021/05/19 13:39:22;;;;;;;4.40;3.25;;;12.40;94.70;;;;;;4979625;28;20046;-84
2021/05/19 13:41:50;;;;;;;6.10;3.60;;;12.40;94.80;;;;;;4986048;28;20038;-84
2021/05/19 13:44:18;;;;;;;4.80;3.17;;;12.50;95.00;;;;;;4983864;28;20048;-84
2021/05/19 13:46:46;;;;;;;4.35;3.42;;;12.60;95.30;;;;;;4973271;28;20101;-84
2021/05/19 13:51:51;;;;;;;3.78;1.98;;;12.80;94.70;;;;;;4983442;28;20034;-83
2021/05/19 13:54:17;;;;;;;5.47;2.80;;;12.80;94.10;;;;;;4976382;28;20574;-82
2021/05/19 13:56:44;;;;;;;4.10;2.33;;;12.80;93.70;;;;;;4980114;28;20070;-82
2021/05/19 13:59:10;;;;;;;7.00;2.58;;;12.80;93.50;;;;;;4979406;28;20880;-82
2021/05/19 14:01:36;;;;;;;7.05;3.13;;;12.90;93.50;;;;;;4978646;28;20232;-84
2021/05/19 14:04:04;;;;;;;3.92;2.60;;;13.00;93.60;;;;;;4973539;28;20569;-84
2021/05/19 14:06:29;;;;;;;3.25;1.73;;;13.10;93.60;;;;;;4974789;28;20039;-84
2021/05/19 14:08:55;;;;;;;6.13;2.70;;;13.20;93.40;;;;;;4945678;28;20049;-85
2021/05/19 14:11:23;;;;;;;3.75;2.17;;;13.30;93.20;;;;;;4982738;28;20026;-84
2021/05/19 14:19:17;;;;;;;8.48;3.08;;;13.60;92.70;;;;;;4977887;28;20546;-84
2021/05/19 14:27:17;;;;;;;3.65;2.97;;;13.30;92.60;;;;;;4979219;28;20668;-83
2021/05/19 14:29:44;;;;;;;5.40;3.25;;;13.30;92.80;;;;;;4959286;28;20119;-84
2021/05/19 14:32:12;;;;;;;6.43;3.33;;;13.20;92.80;;;;;;4981539;28;20063;-83
2021/05/19 14:34:39;;;;;;;4.47;3.10;;;13.20;92.80;;;;;;4969095;28;20034;-84
2021/05/19 15:00:44;;;;;;;7.70;4.43;;;13.50;92.00;;;;;;4962073;28;20092;-83
2021/05/19 15:03:10;;;;;;;5.28;3.25;;;13.50;92.00;;;;;;4962944;28;20047;-83
2021/05/19 15:05:38;;;;;;;3.60;2.45;;;13.50;92.00;;;;;;4961206;28;20086;-83
2021/05/19 15:08:06;;;;;;;6.28;4.32;;;13.40;91.90;;;;;;4945893;28;20050;-87
2021/05/19 15:10:32;;;;;;;5.07;3.65;;;13.30;92.10;;;;;;4958518;28;20054;-83
2021/05/19 15:12:58;;;;;;;3.85;2.67;;;13.30;92.10;;;;;;4964829;28;20026;-83
2021/05/19 15:15:24;;;;;;;7.22;2.83;;;13.30;91.90;;;;;;4978446;28;20496;-83
2021/05/19 15:17:50;;;;;;;3.88;2.70;;;13.30;91.70;;;;;;4961306;28;20505;-82
2021/05/19 15:20:16;;;;;;;3.90;3.40;;;13.40;91.80;;;;;;4976956;28;20027;-82
2021/05/19 15:22:43;;;;;;;7.25;3.25;;;13.50;91.70;;;;;;4960522;28;20511;-83
2021/05/19 15:25:09;;;;;;;5.78;2.92;;;13.60;91.60;;;;;;4948548;28;20137;-83
2021/05/19 15:27:35;;;;;;;6.15;2.88;;;13.70;91.20;;;;;;4978916;28;20073;-82
2021/05/19 15:30:01;;;;;;;3.13;2.17;;;13.80;91.20;;;;;;4975321;28;20490;-82
2021/05/19 15:32:27;;;;;;;5.75;3.10;;;13.80;90.90;;;;;;4976513;28;20124;-82
2021/05/19 15:34:53;;;;;;;2.80;1.67;;;13.80;91.00;;;;;;4961261;28;20433;-83
2021/05/19 15:37:19;;;;;;;3.17;2.10;;;13.80;90.80;;;;;;4944766;28;20042;-82
2021/05/19 15:39:48;;;;;;;2.05;1.50;;;13.90;90.30;;;;;;4971765;28;20316;-82
2021/05/19 15:42:14;;;;;;;4.78;1.80;;;13.90;89.40;;;;;;4970648;28;20137;-82
2021/05/19 15:44:41;;;;;;;2.30;1.95;;;13.90;89.00;;;;;;4965989;28;20533;-83
2021/05/19 15:47:07;;;;;;;3.10;1.88;;;13.90;89.20;;;;;;4972219;28;20460;-83
2021/05/19 15:49:33;;;;;;;2.85;1.98;;;13.90;89.60;;;;;;4957522;28;20129;-84
2021/05/19 15:52:00;;;;;;;3.35;1.80;;;13.90;89.60;;;;;;4948965;28;20577;-82
2021/05/19 15:54:28;;;;;;;2.92;1.55;;;14.00;89.70;;;;;;4964090;28;20049;-83
2021/05/19 15:56:54;;;;;;;2.53;1.60;;;14.00;89.20;;;;;;4995196;28;20120;-82
2021/05/19 15:59:19;;;;;;;2.15;1.95;;;14.00;89.70;;;;;;4951244;28;20042;-83
2021/05/19 16:01:45;;;;;;;2.20;1.90;;;14.00;90.00;;;;;;4959833;28;20030;-82
2021/05/19 16:04:14;;;;;;;1.98;1.35;;;14.00;90.10;;;;;;4980083;28;20547;-83
2021/05/19 16:06:40;;;;;;;2.28;1.60;;;14.10;90.20;;;;;;4962205;28;20042;-83
2021/05/19 16:09:06;;;;;;;10.75;2.15;;;14.10;89.60;;;;;;4974255;28;20449;-83
2021/05/19 16:11:32;;;;;;;4.50;2.13;;;14.10;89.70;;;;;;4976011;28;20501;-84
2021/05/19 16:13:58;;;;;;;6.53;1.67;;;13.90;89.20;;;;;;4952005;28;20046;-82
2021/05/19 16:16:25;;;;;;;3.47;1.80;;;13.70;88.80;;;;;;4942938;28;20505;-83
2021/05/19 16:18:55;;;;;;;3.28;1.50;;;13.60;89.60;;;;;;4962052;28;20027;-83
2021/05/19 16:21:22;;;;;;;3.80;1.50;;;13.50;90.20;;;;;;4949394;28;20070;-82
2021/05/19 16:23:49;;;;;;;1.65;1.40;;;13.40;90.10;;;;;;4977649;28;20034;-83
2021/05/19 16:26:19;;;;;;;2.08;1.13;;;13.40;90.10;;;;;;4969710;28;20074;-82
2021/05/19 16:28:46;;;;;;;3.47;1.40;;;13.30;90.20;;;;;;4976703;28;20041;-83
2021/05/19 16:31:25;;;;;;;2.47;1.52;;;13.30;90.30;;;;;;4928080;28;20046;-83
2021/05/19 16:34:28;;;;;;;2.58;1.88;;;13.20;90.40;;;;;;4982405;28;20666;-83
2021/05/19 16:37:05;;;;;;;3.10;1.67;;;13.10;90.50;;;;;;4969503;28;20030;-83
2021/05/19 16:39:39;;;;;;;3.85;2.22;;;13.00;90.90;;;;;;4963549;28;20038;-82
2021/05/19 16:42:07;;;;;;;3.00;2.00;;;13.00;91.20;;;;;;4982309;28;20092;-81
2021/05/19 16:44:36;;;;;;;2.85;2.30;;;13.00;91.30;;;;;;4979432;28;20045;-83
2021/05/19 16:47:02;;;;;;;2.30;1.80;;;13.00;91.40;;;;;;4979187;28;20489;-80
2021/05/19 16:49:30;;;;;;;6.88;2.30;;;12.90;91.20;;;;;;4980112;28;20149;-80
2021/05/19 16:52:04;;;;;;;3.13;1.90;;;12.90;91.30;;;;;;4970220;28;20035;-82
2021/05/19 16:54:32;;;;;;;4.10;2.00;;;12.80;91.10;;;;;;4984325;28;20030;-82
2021/05/19 16:56:58;;;;;;;5.65;1.80;;;12.70;91.30;;;;;;4990935;28;20026;-82
2021/05/19 16:59:25;;;;;;;2.33;2.08;;;12.60;91.10;;;;;;4946136;28;20121;-82
2021/05/19 17:07:15;;;;;;;4.75;2.33;;;12.60;91.20;;;;;;4974334;28;20290;-84
2021/05/19 17:09:45;;;;;;;2.72;2.30;;;12.50;91.60;;;;;;4961813;28;20046;-83
2021/05/19 17:12:13;;;;;;;3.83;2.28;;;12.60;91.80;;;;;;4965518;28;20065;-82
2021/05/19 17:14:39;;;;;;;3.15;2.00;;;12.60;91.80;;;;;;4977541;28;20062;-84
2021/05/19 17:17:04;;;;;;;3.05;1.90;;;12.70;91.70;;;;;;4951516;28;20485;-82
2021/05/19 17:19:32;;;;;;;4.75;1.98;;;12.80;91.80;;;;;;4980417;28;20057;-82
2021/05/19 17:22:00;;;;;;;2.95;1.67;;;12.80;91.90;;;;;;4976661;28;20058;-82
2021/05/19 17:24:26;;;;;;;1.98;1.40;;;12.80;91.50;;;;;;4967129;28;20117;-83
2021/05/19 17:26:52;;;;;;;3.15;1.80;;;12.80;91.40;;;;;;4981863;28;20118;-84
2021/05/19 17:29:18;;;;;;;2.53;1.70;;;12.70;91.40;;;;;;4960907;28;20469;-83
2021/05/19 17:31:44;;;;;;;2.63;1.52;;;12.70;91.30;;;;;;4951315;28;20041;-83
2021/05/19 17:34:10;;;;;;;3.05;1.50;;;12.60;91.30;;;;;;4965108;28;20543;-83
2021/05/19 17:36:38;;;;;;;9.15;2.03;;;12.60;91.30;;;;;;4962461;28;20673;-82
2021/05/19 17:39:06;;;;;;;3.17;1.75;;;12.60;91.30;;;;;;4974408;28;20039;-83
2021/05/19 17:41:33;;;;;;;2.38;1.80;;;12.50;91.60;;;;;;4985523;28;20046;-83
2021/05/19 17:43:59;;;;;;;3.83;2.20;;;12.50;91.80;;;;;;4974736;28;20161;-83
2021/05/19 17:46:25;;;;;;;2.03;1.63;;;12.50;92.00;;;;;;4963625;28;20030;-83
2021/05/19 17:49:07;;;;;;;3.10;1.85;;;12.40;91.90;;;;;;4975484;28;20027;-82
2021/05/19 17:51:42;;;;;;;1.98;1.80;;;12.40;92.00;;;;;;4977109;28;20065;-83
2021/05/19 17:54:09;;;;;;;2.45;1.63;;;12.50;92.00;;;;;;4979549;28;20121;-82
2021/05/19 17:56:35;;;;;;;3.63;1.83;;;12.60;91.90;;;;;;4949687;28;20473;-83
2021/05/19 17:59:03;;;;;;;4.60;1.60;;;12.60;91.70;;;;;;4947285;28;20046;-82
2021/05/19 18:01:39;;;;;;;2.30;1.40;;;12.70;91.70;;;;;;4966163;28;20370;-83
2021/05/19 18:04:06;;;;;;;2.63;1.52;;;12.70;91.40;;;;;;4957972;28;20358;-83
2021/05/19 18:06:44;;;;;;;2.90;1.60;;;12.80;91.40;;;;;;4978535;28;20319;-83
2021/05/19 18:09:10;;;;;;;3.47;1.65;;;12.80;91.60;;;;;;4976764;28;20777;-83
2021/05/19 18:11:39;;;;;;;1.55;1.40;;;12.80;91.60;;;;;;4979358;28;20042;-83
2021/05/19 18:14:06;;;;;;;4.78;2.28;;;12.90;91.50;;;;;;4962374;28;20396;-83
2021/05/19 18:16:32;;;;;;;3.50;2.60;;;12.90;91.60;;;;;;4974942;28;20037;-84
2021/05/19 18:18:59;;;;;;;3.35;2.22;;;13.00;91.70;;;;;;4975390;28;20035;-83
2021/05/19 18:21:26;;;;;;;4.53;2.63;;;13.00;91.50;;;;;;4985601;28;20034;-83
2021/05/19 18:23:51;;;;;;;3.47;2.28;;;13.00;91.50;;;;;;4964485;28;20421;-84
2021/05/19 18:26:17;;;;;;;4.40;2.17;;;12.90;91.50;;;;;;4957802;28;20053;-83
2021/05/19 18:28:44;;;;;;;2.58;1.95;;;12.90;91.50;;;;;;4966044;28;20120;-83
2021/05/19 18:31:22;;;;;;;3.40;2.28;;;12.90;91.60;;;;;;4967820;28;20037;-83
2021/05/19 18:33:54;;;;;;;3.53;2.20;;;12.80;91.50;;;;;;4986031;28;20051;-82
2021/05/19 18:36:20;;;;;;;4.32;2.20;;;12.80;91.50;;;;;;4952351;28;20116;-84
2021/05/19 18:38:45;;;;;;;4.40;2.28;;;12.70;91.70;;;;;;4964178;28;20070;-83
2021/05/19 18:41:11;;;;;;;3.22;2.20;;;12.70;91.70;;;;;;4984196;28;20378;-83
2021/05/19 18:43:37;;;;;;;4.63;2.55;;;12.70;91.70;;;;;;4964713;28;20034;-83